createdAt,value
2023-01-03T00:02:04.352Z,1.40
2023-01-03T00:04:31.598Z,1.00
2023-01-03T00:06:58.817Z,1.27
2023-01-03T00:09:26.125Z,1.20
2023-01-03T00:12:12.760Z,1.20
2023-01-03T00:14:41.123Z,1.70
2023-01-03T00:17:08.681Z,2.90
2023-01-03T00:19:37.489Z,3.30
2023-01-03T00:22:05.219Z,2.60
2023-01-03T00:24:32.801Z,2.10
2023-01-03T00:26:59.915Z,1.90
2023-01-03T00:29:27.215Z,1.70
2023-01-03T00:31:54.347Z,1.40
2023-01-03T00:34:21.454Z,1.43
2023-01-03T00:36:48.530Z,1.33
2023-01-03T00:39:15.639Z,1.20
2023-01-03T00:41:42.861Z,1.37
2023-01-03T00:44:10.000Z,1.17
2023-01-03T00:46:37.260Z,1.80
2023-01-03T00:49:04.811Z,1.90
2023-01-03T00:51:32.966Z,1.50
2023-01-03T00:54:00.849Z,1.60
2023-01-03T00:56:29.693Z,1.23
2023-01-03T00:58:57.041Z,1.30
2023-01-03T01:01:29.179Z,1.20
2023-01-03T01:03:59.721Z,1.13
2023-01-03T01:06:28.661Z,1.20
2023-01-03T01:08:58.357Z,1.30
2023-01-03T01:11:25.671Z,1.23
2023-01-03T01:13:52.984Z,1.37
2023-01-03T01:16:21.908Z,1.30
2023-01-03T01:18:50.303Z,1.17
2023-01-03T01:21:18.704Z,1.20
2023-01-03T01:23:46.231Z,1.70
2023-01-03T01:26:15.366Z,1.50
2023-01-03T01:28:42.613Z,1.50
2023-01-03T01:31:10.506Z,1.47
2023-01-03T01:33:38.124Z,1.40
2023-01-03T01:36:08.836Z,1.43
2023-01-03T01:38:36.304Z,1.83
2023-01-03T01:41:03.725Z,1.80
2023-01-03T01:43:49.762Z,1.80
2023-01-03T01:46:21.391Z,1.57
2023-01-03T01:48:50.399Z,1.70
2023-01-03T01:51:19.007Z,1.50
2023-01-03T01:53:46.133Z,1.60
2023-01-03T01:56:24.127Z,1.50
2023-01-03T01:58:52.226Z,1.70
2023-01-03T02:01:20.848Z,1.57
2023-01-03T02:03:52.255Z,1.60
2023-01-03T02:06:19.667Z,1.60
2023-01-03T02:08:46.781Z,1.63
2023-01-03T02:11:19.946Z,1.50
2023-01-03T02:13:47.038Z,1.70
2023-01-03T02:16:20.006Z,1.60
2023-01-03T02:18:51.624Z,1.63
2023-01-03T02:21:25.002Z,1.60
2023-01-03T02:24:01.974Z,2.00
2023-01-03T02:26:32.249Z,2.10
2023-01-03T02:29:17.425Z,1.60
2023-01-03T02:31:44.544Z,1.87
2023-01-03T02:34:17.716Z,1.67
2023-01-03T02:36:47.598Z,1.60
2023-01-03T02:39:22.006Z,1.77
2023-01-03T02:42:13.894Z,1.80
2023-01-03T02:44:45.563Z,1.80
2023-01-03T02:47:13.841Z,2.00
2023-01-03T02:49:47.009Z,1.80
2023-01-03T02:52:15.766Z,1.90
2023-01-03T02:54:45.510Z,2.20
2023-01-03T02:57:18.162Z,2.10
2023-01-03T02:59:45.257Z,2.30
2023-01-03T03:02:13.228Z,2.40
2023-01-03T03:04:41.334Z,2.63
2023-01-03T03:07:10.110Z,2.80
2023-01-03T03:09:57.208Z,2.60
2023-01-03T03:12:43.154Z,2.60
2023-01-03T03:15:12.028Z,2.87
2023-01-03T03:17:39.251Z,2.60
2023-01-03T03:20:33.166Z,2.80
2023-01-03T03:23:21.203Z,2.90
2023-01-03T03:25:51.074Z,2.90
2023-01-03T03:28:35.355Z,2.80
2023-01-03T03:31:22.912Z,2.77
2023-01-03T03:33:58.220Z,3.07
2023-01-03T03:36:36.567Z,3.17
2023-01-03T03:39:04.333Z,3.60
2023-01-03T03:41:58.090Z,3.30
2023-01-03T03:44:54.572Z,3.57
2023-01-03T03:47:27.791Z,3.57
2023-01-03T03:49:56.882Z,3.73
2023-01-03T03:52:29.349Z,4.10
2023-01-03T03:55:02.433Z,4.30
2023-01-03T03:57:34.456Z,4.50
2023-01-03T04:00:07.219Z,4.63
2023-01-03T04:02:35.157Z,4.57
2023-01-03T04:05:05.842Z,4.70
2023-01-03T04:07:32.992Z,4.50
2023-01-03T04:10:00.193Z,4.77
2023-01-03T04:12:27.415Z,4.80
2023-01-03T04:14:54.506Z,5.23
2023-01-03T04:17:21.703Z,5.20
2023-01-03T04:19:48.829Z,4.90
2023-01-03T04:22:15.950Z,5.50
2023-01-03T04:24:43.040Z,5.30
2023-01-03T04:27:10.160Z,4.80
2023-01-03T04:29:39.345Z,5.33
2023-01-03T04:32:07.016Z,5.60
2023-01-03T04:34:34.212Z,4.97
2023-01-03T04:37:01.347Z,5.50
2023-01-03T04:39:28.477Z,5.80
2023-01-03T04:41:55.593Z,5.77
2023-01-03T04:44:22.701Z,5.63
2023-01-03T04:46:53.098Z,5.63
2023-01-03T04:49:20.641Z,6.33
2023-01-03T04:51:47.811Z,5.73
2023-01-03T04:54:14.962Z,6.70
2023-01-03T04:56:42.100Z,6.60
2023-01-03T04:59:09.220Z,6.43
2023-01-03T05:01:36.468Z,7.00
2023-01-03T05:04:04.989Z,6.90
2023-01-03T05:06:32.183Z,6.40
2023-01-03T05:08:59.310Z,6.90
2023-01-03T05:11:26.510Z,7.13
2023-01-03T05:13:53.702Z,6.50
2023-01-03T05:16:21.176Z,7.20
2023-01-03T05:18:51.211Z,6.27
2023-01-03T05:21:38.043Z,6.57
2023-01-03T05:24:23.974Z,6.03
2023-01-03T05:26:51.542Z,6.17
2023-01-03T05:29:20.875Z,6.07
2023-01-03T05:31:48.444Z,5.53
2023-01-03T05:34:15.928Z,6.00
2023-01-03T05:36:43.167Z,6.10
2023-01-03T05:39:10.322Z,6.27
2023-01-03T05:41:56.146Z,5.87
2023-01-03T05:44:23.334Z,6.43
2023-01-03T05:46:50.543Z,5.90
2023-01-03T05:49:17.675Z,5.70
2023-01-03T05:51:44.831Z,5.67
2023-01-03T05:54:15.729Z,6.50
2023-01-03T05:56:43.017Z,6.03
2023-01-03T05:59:10.155Z,6.40
2023-01-03T06:01:37.405Z,6.90
2023-01-03T06:04:04.645Z,6.60
2023-01-03T06:06:31.900Z,6.73
2023-01-03T06:09:00.193Z,6.77
2023-01-03T06:11:27.345Z,7.07
2023-01-03T06:13:54.471Z,6.97
2023-01-03T06:16:40.727Z,6.70
2023-01-03T06:19:08.275Z,6.93
2023-01-03T06:21:36.122Z,7.20
2023-01-03T06:24:03.236Z,8.33
2023-01-03T06:26:30.434Z,8.60
2023-01-03T06:28:57.708Z,8.20
2023-01-03T06:31:24.993Z,9.17
2023-01-03T06:33:52.130Z,9.40
2023-01-03T06:36:20.750Z,9.63
2023-01-03T06:38:47.898Z,8.40
2023-01-03T06:41:15.616Z,8.93
2023-01-03T06:43:43.058Z,9.47
2023-01-03T06:46:29.896Z,10.50
2023-01-03T06:49:16.151Z,10.40
2023-01-03T06:52:02.077Z,9.53
2023-01-03T06:54:29.173Z,9.77
2023-01-03T06:56:56.632Z,10.30
2023-01-03T06:59:24.251Z,12.60
2023-01-03T07:01:52.162Z,11.57
2023-01-03T07:04:20.270Z,11.13
2023-01-03T07:06:47.559Z,11.13
2023-01-03T07:09:15.148Z,11.57
2023-01-03T07:11:42.329Z,12.03
2023-01-03T07:14:10.569Z,10.27
2023-01-03T07:16:44.914Z,10.20
2023-01-03T07:19:16.542Z,9.63
2023-01-03T07:21:43.971Z,9.60
2023-01-03T07:24:16.010Z,10.17
2023-01-03T07:26:43.134Z,9.77
2023-01-03T07:29:10.895Z,8.70
2023-01-03T07:31:41.461Z,9.20
2023-01-03T07:34:09.222Z,8.83
2023-01-03T07:36:36.832Z,9.30
2023-01-03T07:39:04.058Z,9.03
2023-01-03T07:41:50.066Z,9.33
2023-01-03T07:44:17.160Z,9.43
2023-01-03T07:46:44.379Z,9.73
2023-01-03T07:49:12.476Z,9.07
2023-01-03T07:51:39.995Z,9.60
2023-01-03T07:54:07.688Z,8.60
2023-01-03T07:56:35.111Z,8.80
2023-01-03T07:59:02.328Z,9.43
2023-01-03T08:01:30.484Z,8.73
2023-01-03T08:03:57.981Z,8.17
2023-01-03T08:06:25.644Z,7.80
2023-01-03T08:09:12.197Z,7.03
2023-01-03T08:11:58.089Z,6.77
2023-01-03T08:14:27.395Z,7.07
2023-01-03T08:16:55.160Z,6.87
2023-01-03T08:19:22.321Z,6.77
2023-01-03T08:21:49.438Z,6.47
2023-01-03T08:24:16.683Z,6.30
2023-01-03T08:26:43.779Z,6.10
2023-01-03T08:29:10.947Z,6.40
2023-01-03T08:31:41.186Z,7.17
2023-01-03T08:34:16.526Z,7.00
2023-01-03T08:36:58.075Z,6.77
2023-01-03T08:39:26.974Z,6.80
2023-01-03T08:41:56.745Z,6.63
2023-01-03T08:44:23.911Z,5.87
2023-01-03T08:46:52.234Z,7.97
2023-01-03T08:49:19.724Z,8.23
2023-01-03T08:51:47.109Z,7.20
2023-01-03T08:54:14.212Z,7.40
2023-01-03T08:56:41.327Z,9.00
2023-01-03T08:59:08.449Z,7.07
2023-01-03T09:01:35.878Z,7.70
2023-01-03T09:04:05.085Z,7.80
2023-01-03T09:06:32.545Z,7.60
2023-01-03T09:08:59.640Z,7.33
2023-01-03T09:11:26.773Z,7.20
2023-01-03T09:13:55.843Z,7.07
2023-01-03T09:16:22.943Z,6.30
2023-01-03T09:18:50.101Z,6.23
2023-01-03T09:21:17.242Z,5.50
2023-01-03T09:23:44.384Z,5.73
2023-01-03T09:26:11.805Z,5.33
2023-01-03T09:28:39.011Z,5.77
2023-01-03T09:31:06.205Z,5.50
2023-01-03T09:33:33.396Z,5.50
2023-01-03T09:36:00.618Z,5.63
2023-01-03T09:38:27.903Z,5.20
2023-01-03T09:41:00.317Z,6.07
2023-01-03T09:43:31.949Z,5.73
2023-01-03T09:46:02.021Z,5.67
2023-01-03T09:48:36.831Z,8.70
2023-01-03T09:51:27.521Z,8.30
2023-01-03T09:54:11.239Z,7.83
2023-01-03T09:56:57.062Z,6.60
2023-01-03T09:59:43.716Z,7.33
2023-01-03T10:02:44.719Z,5.73
2023-01-03T10:05:15.006Z,4.57
2023-01-03T10:07:51.167Z,3.53
2023-01-03T10:10:30.269Z,3.50
2023-01-03T10:13:17.850Z,3.40
2023-01-03T10:16:16.160Z,3.03
2023-01-03T10:19:04.266Z,2.73
2023-01-03T10:21:43.182Z,2.93
2023-01-03T10:24:17.373Z,3.03
2023-01-03T10:26:44.546Z,2.90
2023-01-03T10:29:13.782Z,2.60
2023-01-03T10:31:50.129Z,2.40
2023-01-03T10:34:17.299Z,2.67
2023-01-03T10:36:44.398Z,2.90
2023-01-03T10:39:11.774Z,2.53
2023-01-03T10:41:46.462Z,2.75
2023-01-03T10:44:24.648Z,2.53
2023-01-03T10:46:53.990Z,2.58
2023-01-03T10:49:27.913Z,2.35
2023-01-03T10:52:04.446Z,2.47
2023-01-03T10:54:37.015Z,2.78
2023-01-03T10:57:06.085Z,2.88
2023-01-03T10:59:33.634Z,2.60
2023-01-03T11:02:13.682Z,2.80
2023-01-03T11:04:41.156Z,2.45
2023-01-03T11:07:14.111Z,2.47
2023-01-03T11:09:50.459Z,2.50
2023-01-03T11:12:29.143Z,2.70
2023-01-03T11:14:57.355Z,2.25
2023-01-03T11:17:25.450Z,2.30
2023-01-03T11:19:53.620Z,2.15
2023-01-03T11:22:37.508Z,2.50
2023-01-03T11:25:05.167Z,3.03
2023-01-03T11:27:35.016Z,2.43
2023-01-03T11:30:31.780Z,2.80
2023-01-03T11:33:18.826Z,3.00
2023-01-03T11:36:03.580Z,3.07
2023-01-03T11:38:48.650Z,3.40
2023-01-03T11:41:15.725Z,3.30
2023-01-03T11:44:01.425Z,3.87
2023-01-03T11:46:37.665Z,3.70
2023-01-03T11:49:25.044Z,3.20
2023-01-03T11:51:52.172Z,3.60
2023-01-03T11:54:37.497Z,3.57
2023-01-03T11:57:20.009Z,3.70
2023-01-03T12:00:04.374Z,2.93
2023-01-03T12:02:50.145Z,3.23
2023-01-03T12:05:35.700Z,3.10
2023-01-03T12:08:21.687Z,3.17
2023-01-03T12:10:59.623Z,3.90
2023-01-03T12:13:32.706Z,3.87
2023-01-03T12:16:05.302Z,3.03
2023-01-03T12:18:38.253Z,3.60
2023-01-03T12:21:22.295Z,3.63
2023-01-03T12:23:51.495Z,3.63
2023-01-03T12:26:18.768Z,3.60
2023-01-03T12:28:57.944Z,3.20
2023-01-03T12:31:31.819Z,3.57
2023-01-03T12:34:17.683Z,3.40
2023-01-03T12:36:47.552Z,3.93
2023-01-03T12:39:29.213Z,3.47
2023-01-03T12:42:11.839Z,3.53
2023-01-03T12:44:41.386Z,3.63
2023-01-03T12:47:15.089Z,3.60
2023-01-03T12:49:45.671Z,3.17
2023-01-03T12:52:17.130Z,3.60
2023-01-03T12:54:49.227Z,3.10
2023-01-03T12:57:26.780Z,3.50
2023-01-03T12:59:53.855Z,2.90
2023-01-03T13:02:23.982Z,3.30
2023-01-03T13:04:53.246Z,3.23
2023-01-03T13:07:29.082Z,2.90
2023-01-03T13:10:07.551Z,2.97
2023-01-03T13:12:35.341Z,2.80
2023-01-03T13:15:38.021Z,2.90
2023-01-03T13:18:18.597Z,2.77
2023-01-03T13:20:50.163Z,2.73
2023-01-03T13:23:43.816Z,2.83
2023-01-03T13:26:19.276Z,2.83
2023-01-03T13:28:46.398Z,2.87
2023-01-03T13:31:19.660Z,2.80
2023-01-03T13:33:49.566Z,2.57
2023-01-03T13:36:16.778Z,2.90
2023-01-03T13:38:43.890Z,2.83
2023-01-03T13:41:30.157Z,3.10
2023-01-03T13:44:07.376Z,2.80
2023-01-03T13:46:34.927Z,2.80
2023-01-03T13:49:06.719Z,2.67
2023-01-03T13:51:40.132Z,2.57
2023-01-03T13:54:13.331Z,2.80
2023-01-03T13:56:43.260Z,2.73
2023-01-03T13:59:19.281Z,2.70
2023-01-03T14:01:49.633Z,2.57
2023-01-03T14:04:35.825Z,2.93
2023-01-03T14:07:18.205Z,2.70
2023-01-03T14:10:03.852Z,2.80
2023-01-03T14:12:50.035Z,2.90
2023-01-03T14:15:26.041Z,2.80
2023-01-03T14:17:55.928Z,3.13
2023-01-03T14:20:24.829Z,3.37
2023-01-03T14:22:52.739Z,3.30
2023-01-03T14:25:32.708Z,2.77
2023-01-03T14:28:06.390Z,3.60
2023-01-03T14:30:35.808Z,3.37
2023-01-03T14:33:02.951Z,3.27
2023-01-03T14:35:40.127Z,3.60
2023-01-03T14:38:21.973Z,3.37
2023-01-03T14:40:49.121Z,3.77
2023-01-03T14:43:21.227Z,3.60
2023-01-03T14:45:55.960Z,4.20
2023-01-03T14:48:23.792Z,3.67
2023-01-03T14:50:51.026Z,4.10
2023-01-03T14:53:18.474Z,3.80
2023-01-03T14:55:53.280Z,3.60
2023-01-03T14:58:29.754Z,3.60
2023-01-03T15:00:57.211Z,3.60
2023-01-03T15:03:25.605Z,4.03
2023-01-03T15:05:54.781Z,4.00
2023-01-03T15:08:23.486Z,3.90
2023-01-03T15:10:54.798Z,3.93
2023-01-03T15:13:24.994Z,3.80
2023-01-03T15:15:55.937Z,4.37
2023-01-03T15:18:27.459Z,3.97
2023-01-03T15:20:55.402Z,3.87
2023-01-03T15:23:35.032Z,3.50
2023-01-03T15:26:02.258Z,3.67
2023-01-03T15:28:35.819Z,3.67
2023-01-03T15:31:21.459Z,4.00
2023-01-03T15:33:59.525Z,3.50
2023-01-03T15:36:28.489Z,3.47
2023-01-03T15:38:55.716Z,3.90
2023-01-03T15:41:42.751Z,4.00
2023-01-03T15:44:10.668Z,3.90
2023-01-03T15:46:38.302Z,3.87
2023-01-03T15:49:06.183Z,3.37
2023-01-03T15:51:33.325Z,3.27
2023-01-03T15:54:00.441Z,3.43
2023-01-03T15:56:36.912Z,3.40
2023-01-03T15:59:06.187Z,3.60
2023-01-03T16:01:33.455Z,3.23
2023-01-03T16:04:00.699Z,3.07
2023-01-03T16:06:27.809Z,2.70
2023-01-03T16:08:54.983Z,3.33
2023-01-03T16:11:33.298Z,2.77
2023-01-03T16:14:02.362Z,3.10
2023-01-03T16:16:32.058Z,2.87
2023-01-03T16:18:59.413Z,2.77
2023-01-03T16:21:26.741Z,2.80
2023-01-03T16:23:53.898Z,3.20
2023-01-03T16:26:21.096Z,3.23
2023-01-03T16:28:48.225Z,4.13
2023-01-03T16:31:19.785Z,4.10
2023-01-03T16:33:50.782Z,3.90
2023-01-03T16:36:49.966Z,4.33
2023-01-03T16:39:17.106Z,4.17
2023-01-03T16:42:05.068Z,4.10
2023-01-03T16:44:32.753Z,4.10
2023-01-03T16:46:59.961Z,3.83
2023-01-03T16:49:28.520Z,3.23
2023-01-03T16:51:57.834Z,3.50
2023-01-03T16:54:25.317Z,2.97
2023-01-03T16:56:52.742Z,2.63
2023-01-03T16:59:20.618Z,2.17
2023-01-03T17:01:48.176Z,2.70
2023-01-03T17:04:15.400Z,2.90
2023-01-03T17:06:43.933Z,3.00
2023-01-03T17:09:20.360Z,3.13
2023-01-03T17:11:47.843Z,3.50
2023-01-03T17:14:20.817Z,3.60
2023-01-03T17:16:48.429Z,3.60
2023-01-03T17:20:02.123Z,3.57
2023-01-03T17:22:16.575Z,2.70
2023-01-03T17:24:43.970Z,2.70
2023-01-03T17:27:16.764Z,2.77
2023-01-03T17:29:44.083Z,3.17
2023-01-03T17:32:17.112Z,3.03
2023-01-03T17:34:44.193Z,3.20
2023-01-03T17:37:14.857Z,3.20
2023-01-03T17:39:42.058Z,3.00
2023-01-03T17:42:16.673Z,3.27
2023-01-03T17:45:04.937Z,3.50
2023-01-03T17:47:50.695Z,3.40
2023-01-03T17:50:17.859Z,3.43
2023-01-03T17:52:48.897Z,3.40
2023-01-03T17:55:21.019Z,3.73
2023-01-03T17:57:48.565Z,3.97
2023-01-03T18:00:16.985Z,3.97
2023-01-03T18:02:44.434Z,4.30
2023-01-03T18:05:21.502Z,4.10
2023-01-03T18:07:52.041Z,4.87
2023-01-03T18:10:20.495Z,6.50
2023-01-03T18:12:47.718Z,6.10
2023-01-03T18:15:19.265Z,5.60
2023-01-03T18:17:46.440Z,5.03
2023-01-03T18:20:14.153Z,4.83
2023-01-03T18:22:42.097Z,4.77
2023-01-03T18:25:22.715Z,5.27
2023-01-03T18:27:58.259Z,4.77
2023-01-03T18:30:25.566Z,4.30
2023-01-03T18:32:52.767Z,4.07
2023-01-03T18:35:28.321Z,4.07
2023-01-03T18:37:59.796Z,4.77
2023-01-03T18:40:27.667Z,4.03
2023-01-03T18:43:08.423Z,4.20
2023-01-03T18:45:35.963Z,3.93
2023-01-03T18:48:03.135Z,4.30
2023-01-03T18:50:30.332Z,5.17
2023-01-03T18:53:00.177Z,4.83
2023-01-03T18:55:28.741Z,4.83
2023-01-03T18:57:55.956Z,4.57
2023-01-03T19:00:24.460Z,4.60
2023-01-03T19:02:52.227Z,4.83
2023-01-03T19:05:20.302Z,4.73
2023-01-03T19:07:48.235Z,4.47
2023-01-03T19:10:23.476Z,4.53
2023-01-03T19:12:51.784Z,5.00
2023-01-03T19:15:20.325Z,5.10
2023-01-03T19:17:47.493Z,5.30
2023-01-03T19:20:14.923Z,5.97
2023-01-03T19:22:43.391Z,6.47
2023-01-03T19:25:14.549Z,5.17
2023-01-03T19:27:45.084Z,6.80
2023-01-03T19:30:20.472Z,6.83
2023-01-03T19:32:55.081Z,6.50
2023-01-03T19:35:23.457Z,6.97
2023-01-03T19:37:51.035Z,6.53
2023-01-03T19:40:19.547Z,6.10
2023-01-03T19:43:04.914Z,5.80
2023-01-03T19:45:39.105Z,6.33
2023-01-03T19:48:20.104Z,5.80
2023-01-03T19:50:47.668Z,5.63
2023-01-03T19:53:14.832Z,5.63
2023-01-03T19:55:43.474Z,5.90
2023-01-03T19:58:24.977Z,5.40
2023-01-03T20:00:52.331Z,5.77
2023-01-03T20:03:38.833Z,5.40
2023-01-03T20:06:06.490Z,6.23
2023-01-03T20:08:33.567Z,6.03
2023-01-03T20:11:00.716Z,6.20
2023-01-03T20:13:28.470Z,5.77
2023-01-03T20:16:00.126Z,6.23
2023-01-03T20:18:29.119Z,6.20
2023-01-03T20:20:57.497Z,5.90
2023-01-03T20:23:24.676Z,5.47
2023-01-03T20:25:51.864Z,6.03
2023-01-03T20:28:20.455Z,5.73
2023-01-03T20:30:47.692Z,6.17
2023-01-03T20:33:14.844Z,5.87
2023-01-03T20:38:29.175Z,5.83
2023-01-03T20:40:57.008Z,6.37
2023-01-03T20:43:24.231Z,6.73
2023-01-03T20:45:58.974Z,6.97
2023-01-03T20:48:26.899Z,7.60
2023-01-03T20:50:54.451Z,7.63
2023-01-03T20:53:23.216Z,7.50
2023-01-03T20:55:50.863Z,7.77
2023-01-03T20:58:19.587Z,7.07
2023-01-03T21:00:46.741Z,7.43
2023-01-03T21:03:14.047Z,6.57
2023-01-03T21:05:41.249Z,6.90
2023-01-03T21:08:31.537Z,8.00
2023-01-03T21:10:58.681Z,7.47
2023-01-03T21:13:25.974Z,6.87
2023-01-03T21:15:53.168Z,6.50
2023-01-03T21:18:20.315Z,6.17
2023-01-03T21:20:47.460Z,6.10
2023-01-03T21:23:18.376Z,6.20
2023-01-03T21:25:45.594Z,6.17
2023-01-03T21:28:13.099Z,5.87
2023-01-03T21:30:40.618Z,5.80
2023-01-03T21:33:08.066Z,5.73
2023-01-03T21:35:35.564Z,5.67
2023-01-03T21:38:02.690Z,6.10
2023-01-03T21:40:30.078Z,5.93
2023-01-03T21:43:04.883Z,5.93
2023-01-03T21:45:35.713Z,7.07
2023-01-03T21:48:04.411Z,7.37
2023-01-03T21:50:32.248Z,5.70
2023-01-03T21:52:59.765Z,6.00
2023-01-03T21:55:27.042Z,5.73
2023-01-03T21:57:54.168Z,5.83
2023-01-03T22:00:21.342Z,5.77
2023-01-03T22:03:07.318Z,6.20
2023-01-03T22:05:34.737Z,6.40
2023-01-03T22:08:02.431Z,6.80
2023-01-03T22:10:30.353Z,9.60
2023-01-03T22:13:01.859Z,14.63
2023-01-03T22:15:29.318Z,14.97
2023-01-03T22:17:56.668Z,14.67
2023-01-03T22:20:27.047Z,11.97
2023-01-03T22:22:54.756Z,12.03
2023-01-03T22:25:23.741Z,10.97
2023-01-03T22:27:50.912Z,10.67
2023-01-03T22:30:18.995Z,9.83
2023-01-03T22:32:46.742Z,8.53
2023-01-03T22:35:14.654Z,7.73
2023-01-03T22:37:41.787Z,8.37
2023-01-03T22:40:11.479Z,8.90
2023-01-03T22:42:38.778Z,8.27
2023-01-03T22:45:06.674Z,8.37
2023-01-03T22:47:35.436Z,8.33
2023-01-03T22:50:02.958Z,8.07
2023-01-03T22:52:30.145Z,7.67
2023-01-03T22:54:57.272Z,7.43
2023-01-03T22:57:24.475Z,9.33
2023-01-03T22:59:51.734Z,10.50
2023-01-03T23:02:23.144Z,6.73
2023-01-03T23:04:53.357Z,5.87
2023-01-03T23:07:20.487Z,5.83
2023-01-03T23:09:48.275Z,6.60
2023-01-03T23:12:34.111Z,5.20
2023-01-03T23:15:01.299Z,6.57
2023-01-03T23:17:51.590Z,5.40
2023-01-03T23:20:18.684Z,5.23
2023-01-03T23:22:45.796Z,5.33
2023-01-03T23:25:12.931Z,4.90
2023-01-03T23:27:40.045Z,5.00
2023-01-03T23:30:07.414Z,4.97
2023-01-03T23:32:34.535Z,5.03
2023-01-03T23:35:01.654Z,5.30
2023-01-03T23:37:28.970Z,10.27
2023-01-03T23:39:56.083Z,9.43
2023-01-03T23:42:23.264Z,6.70
2023-01-03T23:44:50.351Z,7.90
2023-01-03T23:47:17.881Z,7.37
2023-01-03T23:49:45.014Z,7.90
2023-01-03T23:52:12.188Z,7.10
2023-01-03T23:54:39.273Z,7.83
2023-01-03T23:57:06.430Z,7.77
2023-01-03T23:59:33.520Z,8.33
